createdAt,value
2018-03-02T00:01:16.228Z,14.90
2018-03-02T00:02:16.139Z,14.80
2018-03-02T00:04:09.369Z,14.70
2018-03-02T00:05:09.290Z,13.70
2018-03-02T00:07:02.661Z,16.80
2018-03-02T00:08:02.451Z,15.20
2018-03-02T00:09:55.737Z,13.40
2018-03-02T00:10:55.610Z,15.30
2018-03-02T00:12:48.866Z,15.50
2018-03-02T00:13:48.771Z,12.80
2018-03-02T00:15:42.008Z,15.70
2018-03-02T00:16:41.929Z,16.20
2018-03-02T00:18:35.193Z,15.10
2018-03-02T00:19:35.085Z,13.00
2018-03-02T00:21:28.459Z,15.40
2018-03-02T00:22:28.245Z,14.10
2018-03-02T00:24:21.486Z,18.40
2018-03-02T00:25:21.407Z,16.10
2018-03-02T00:27:14.674Z,14.10
2018-03-02T00:28:14.574Z,14.90
2018-03-02T00:30:07.931Z,14.90
2018-03-02T00:31:07.748Z,16.90
2018-03-02T00:33:01.109Z,15.40
2018-03-02T00:34:00.893Z,14.80
2018-03-02T00:35:54.131Z,17.10
2018-03-02T00:36:54.050Z,16.50
2018-03-02T00:38:47.436Z,17.60
2018-03-02T00:39:47.348Z,15.40
2018-03-02T00:41:40.713Z,15.00
2018-03-02T00:42:40.501Z,14.10
2018-03-02T00:44:33.739Z,16.70
2018-03-02T00:45:33.658Z,16.40
2018-03-02T00:47:26.918Z,15.50
2018-03-02T00:48:26.817Z,14.40
2018-03-02T00:50:20.064Z,17.50
2018-03-02T00:51:19.974Z,16.60
2018-03-02T00:53:13.239Z,18.10
2018-03-02T00:54:13.135Z,17.10
2018-03-02T00:56:06.490Z,18.30
2018-03-02T00:57:06.300Z,17.80
2018-03-02T00:58:59.553Z,17.90
2018-03-02T00:59:59.454Z,16.60
2018-03-02T01:01:52.713Z,15.10
2018-03-02T01:02:52.614Z,17.20
2018-03-02T01:04:45.853Z,17.30
2018-03-02T01:05:45.773Z,15.20
2018-03-02T01:07:39.146Z,19.20
2018-03-02T01:08:38.934Z,23.40
2018-03-02T01:10:32.286Z,18.00
2018-03-02T01:11:32.094Z,16.70
2018-03-02T01:13:25.463Z,16.10
2018-03-02T01:14:25.251Z,19.20
2018-03-02T01:16:18.496Z,16.80
2018-03-02T01:17:18.412Z,18.70
2018-03-02T01:19:11.670Z,15.90
2018-03-02T01:20:11.574Z,18.50
2018-03-02T01:22:04.831Z,16.40
2018-03-02T01:23:04.731Z,20.50
2018-03-02T01:24:57.969Z,17.30
2018-03-02T01:25:57.891Z,18.50
2018-03-02T01:27:51.140Z,18.00
2018-03-02T01:28:51.049Z,18.50
2018-03-02T01:30:44.416Z,19.90
2018-03-02T01:31:44.336Z,19.80
2018-03-02T01:33:37.585Z,20.20
2018-03-02T01:34:37.486Z,18.00
2018-03-02T01:36:30.725Z,20.80
2018-03-02T01:37:30.650Z,17.70
2018-03-02T01:39:23.899Z,20.90
2018-03-02T01:40:23.803Z,21.80
2018-03-02T01:42:17.186Z,17.40
2018-03-02T01:43:16.963Z,18.50
2018-03-02T01:45:10.229Z,19.90
2018-03-02T01:46:10.130Z,21.00
2018-03-02T01:48:03.381Z,21.10
2018-03-02T01:49:03.282Z,17.60
2018-03-02T01:50:56.510Z,20.00
2018-03-02T01:51:56.431Z,17.10
2018-03-02T01:53:49.689Z,20.40
2018-03-02T01:54:49.587Z,19.50
2018-03-02T01:56:42.941Z,16.20
2018-03-02T01:57:42.747Z,18.60
2018-03-02T01:59:36.002Z,22.90
2018-03-02T02:00:35.906Z,19.60
2018-03-02T02:02:29.151Z,20.30
2018-03-02T02:03:29.050Z,19.30
2018-03-02T02:05:22.418Z,20.00
2018-03-02T02:06:22.335Z,22.20
2018-03-02T02:08:15.592Z,22.40
2018-03-02T02:09:15.493Z,22.20
2018-03-02T02:11:08.726Z,20.10
2018-03-02T02:12:08.648Z,18.80
2018-03-02T02:14:01.908Z,18.60
2018-03-02T02:15:01.809Z,20.80
2018-03-02T02:16:55.182Z,23.30
2018-03-02T02:17:54.972Z,23.10
2018-03-02T02:19:48.228Z,17.80
2018-03-02T02:20:48.126Z,20.40
2018-03-02T02:22:41.387Z,20.40
2018-03-02T02:23:41.285Z,21.60
2018-03-02T02:25:34.524Z,21.00
2018-03-02T02:26:34.447Z,19.00
2018-03-02T02:28:27.707Z,21.30
2018-03-02T02:29:27.600Z,19.10
2018-03-02T02:31:20.840Z,21.40
2018-03-02T02:32:20.760Z,21.80
2018-03-02T02:34:14.016Z,20.00
2018-03-02T02:35:13.921Z,22.70
2018-03-02T02:37:07.303Z,21.20
2018-03-02T02:38:07.079Z,25.50
2018-03-02T02:40:00.323Z,23.60
2018-03-02T02:41:00.240Z,24.90
2018-03-02T02:42:53.497Z,23.70
2018-03-02T02:43:53.397Z,21.00
2018-03-02T02:45:46.637Z,24.30
2018-03-02T02:46:46.554Z,20.90
2018-03-02T02:48:39.933Z,25.50
2018-03-02T02:49:39.716Z,28.20
2018-03-02T02:51:32.941Z,23.00
2018-03-02T02:52:32.867Z,24.30
2018-03-02T02:54:26.115Z,22.00
2018-03-02T02:55:26.017Z,22.90
2018-03-02T02:57:19.279Z,22.90
2018-03-02T02:58:19.173Z,23.80
2018-03-02T03:00:12.415Z,25.30
2018-03-02T03:01:12.333Z,24.50
2018-03-02T03:03:05.583Z,22.50
2018-03-02T03:04:05.478Z,22.30
2018-03-02T03:05:58.724Z,24.60
2018-03-02T03:06:58.642Z,22.60
2018-03-02T03:08:51.890Z,24.20
2018-03-02T03:09:51.788Z,27.30
2018-03-02T03:11:45.142Z,22.90
2018-03-02T03:12:44.947Z,23.70
2018-03-02T03:14:38.204Z,19.70
2018-03-02T03:15:38.106Z,21.20
2018-03-02T03:17:31.369Z,24.70
2018-03-02T03:18:31.265Z,24.30
2018-03-02T03:20:24.494Z,22.50
2018-03-02T03:21:24.411Z,26.70
2018-03-02T03:23:17.672Z,25.80
2018-03-02T03:24:17.565Z,26.00
2018-03-02T03:26:10.807Z,22.60
2018-03-02T03:27:10.728Z,25.00
2018-03-02T03:29:04.106Z,22.00
2018-03-02T03:30:03.888Z,23.10
2018-03-02T03:31:57.127Z,18.50
2018-03-02T03:32:57.046Z,20.10
2018-03-02T03:34:50.443Z,27.20
2018-03-02T03:35:50.344Z,24.20
2018-03-02T03:37:43.614Z,24.00
2018-03-02T03:38:43.506Z,28.40
2018-03-02T03:40:36.726Z,21.50
2018-03-02T03:41:36.648Z,23.40
2018-03-02T03:43:29.907Z,25.10
2018-03-02T03:44:29.808Z,23.70
2018-03-02T03:46:23.046Z,22.60
2018-03-02T03:47:22.967Z,23.20
2018-03-02T03:49:16.229Z,22.30
2018-03-02T03:50:16.126Z,25.60
2018-03-02T03:52:09.360Z,25.70
2018-03-02T03:53:09.285Z,22.50
2018-03-02T03:55:02.652Z,25.60
2018-03-02T03:56:02.437Z,28.30
2018-03-02T03:57:55.814Z,25.00
2018-03-02T03:58:55.592Z,23.40
2018-03-02T04:00:48.944Z,25.20
2018-03-02T04:01:48.737Z,25.60
2018-03-02T04:03:41.995Z,22.70
2018-03-02T04:04:41.898Z,21.80
2018-03-02T04:06:35.135Z,27.00
2018-03-02T04:07:35.099Z,25.20
2018-03-02T04:09:28.431Z,27.80
2018-03-02T04:10:28.326Z,28.20
2018-03-02T04:12:21.567Z,27.10
2018-03-02T04:13:21.488Z,25.50
2018-03-02T04:15:14.743Z,25.40
2018-03-02T04:16:14.643Z,26.30
2018-03-02T04:18:07.899Z,23.90
2018-03-02T04:19:07.800Z,24.90
2018-03-02T04:21:01.153Z,25.10
2018-03-02T04:22:00.955Z,28.50
2018-03-02T04:23:54.214Z,25.90
2018-03-02T04:24:54.109Z,24.90
2018-03-02T04:26:47.348Z,24.20
2018-03-02T04:27:47.267Z,23.80
2018-03-02T04:29:40.525Z,28.30
2018-03-02T04:30:40.424Z,26.50
2018-03-02T04:32:33.662Z,26.70
2018-03-02T04:33:33.578Z,27.90
2018-03-02T04:35:26.836Z,26.80
2018-03-02T04:36:26.739Z,28.40
2018-03-02T04:38:19.993Z,22.80
2018-03-02T04:39:19.891Z,26.50
2018-03-02T04:41:13.134Z,23.40
2018-03-02T04:42:13.053Z,29.00
2018-03-02T04:44:06.429Z,25.30
2018-03-02T04:45:06.331Z,24.70
2018-03-02T04:46:59.571Z,25.10
2018-03-02T04:47:59.492Z,26.50
2018-03-02T04:49:52.742Z,23.30
2018-03-02T04:50:52.643Z,23.30
2018-03-02T04:52:45.878Z,25.80
2018-03-02T04:53:45.797Z,27.80
2018-03-02T04:55:39.056Z,22.30
2018-03-02T04:56:38.955Z,21.20
2018-03-02T04:58:32.209Z,26.20
2018-03-02T04:59:32.110Z,27.00
2018-03-02T05:01:25.461Z,24.00
2018-03-02T05:02:25.267Z,24.20
2018-03-02T05:04:18.520Z,26.20
2018-03-02T05:05:18.420Z,25.70
2018-03-02T05:07:11.662Z,24.30
2018-03-02T05:08:11.580Z,27.90
2018-03-02T05:10:04.828Z,22.50
2018-03-02T05:11:04.728Z,27.80
2018-03-02T05:12:57.965Z,24.90
2018-03-02T05:13:57.886Z,24.90
2018-03-02T05:15:51.141Z,26.60
2018-03-02T05:16:51.044Z,23.30
2018-03-02T05:18:44.433Z,25.60
2018-03-02T05:19:44.334Z,28.90
2018-03-02T05:21:37.612Z,27.90
2018-03-02T05:22:37.487Z,29.00
2018-03-02T05:24:30.740Z,24.20
2018-03-02T05:25:30.640Z,23.30
2018-03-02T05:27:23.879Z,25.20
2018-03-02T05:28:23.800Z,25.20
2018-03-02T05:30:17.043Z,28.20
2018-03-02T05:31:16.941Z,26.20
2018-03-02T05:33:10.180Z,27.00
2018-03-02T05:34:10.100Z,26.10
2018-03-02T05:36:03.470Z,24.00
2018-03-02T05:37:03.255Z,27.90
2018-03-02T05:38:56.523Z,25.80
2018-03-02T05:39:56.411Z,26.80
2018-03-02T05:41:49.648Z,27.80
2018-03-02T05:42:49.567Z,27.70
2018-03-02T05:44:42.818Z,29.40
2018-03-02T05:45:42.720Z,25.70
2018-03-02T05:47:35.957Z,28.10
2018-03-02T05:48:35.876Z,27.70
2018-03-02T05:50:29.250Z,26.30
2018-03-02T05:51:29.023Z,30.50
2018-03-02T05:53:22.258Z,26.10
2018-03-02T05:54:22.183Z,27.00
2018-03-02T05:56:15.436Z,23.30
2018-03-02T05:57:15.334Z,24.20
2018-03-02T05:59:08.587Z,25.90
2018-03-02T06:00:08.516Z,24.10
2018-03-02T06:02:01.728Z,23.10
2018-03-02T06:03:01.642Z,26.00
2018-03-02T06:04:54.897Z,25.30
2018-03-02T06:05:54.796Z,26.70
2018-03-02T06:07:48.032Z,24.40
2018-03-02T06:08:47.952Z,25.00
2018-03-02T06:10:41.201Z,28.90
2018-03-02T06:11:41.099Z,25.40
2018-03-02T06:13:34.413Z,24.00
2018-03-02T06:14:34.333Z,26.00
2018-03-02T06:16:27.588Z,29.80
2018-03-02T06:17:27.488Z,28.20
2018-03-02T06:19:20.755Z,26.10
2018-03-02T06:20:20.648Z,26.80
2018-03-02T06:22:13.994Z,26.00
2018-03-02T06:23:13.798Z,27.00
2018-03-02T06:25:07.051Z,22.80
2018-03-02T06:26:06.953Z,20.70
2018-03-02T06:28:00.189Z,31.20
2018-03-02T06:29:00.110Z,27.20
2018-03-02T06:30:53.359Z,28.70
2018-03-02T06:31:53.262Z,26.10
2018-03-02T06:33:46.490Z,28.30
2018-03-02T06:34:46.410Z,26.80
2018-03-02T06:36:39.663Z,29.10
2018-03-02T06:37:39.565Z,26.60
2018-03-02T06:39:32.827Z,29.30
2018-03-02T06:40:32.738Z,25.70
2018-03-02T06:42:26.070Z,28.90
2018-03-02T06:43:25.871Z,27.90
2018-03-02T06:45:19.126Z,30.50
2018-03-02T06:46:19.030Z,26.70
2018-03-02T06:48:12.277Z,26.00
2018-03-02T06:49:12.192Z,28.90
2018-03-02T06:51:05.444Z,24.60
2018-03-02T06:52:05.345Z,26.60
2018-03-02T06:53:58.583Z,33.50
2018-03-02T06:54:58.503Z,31.00
2018-03-02T06:56:51.768Z,26.70
2018-03-02T06:57:51.657Z,29.20
2018-03-02T06:59:44.917Z,27.60
2018-03-02T07:00:44.818Z,27.60
2018-03-02T07:02:38.056Z,29.10
2018-03-02T07:03:37.979Z,26.10
2018-03-02T07:05:31.234Z,27.50
2018-03-02T07:06:31.126Z,25.30
2018-03-02T07:08:24.368Z,25.40
2018-03-02T07:09:24.290Z,25.50
2018-03-02T07:11:17.658Z,28.40
2018-03-02T07:12:17.447Z,27.00
2018-03-02T07:14:10.679Z,28.20
2018-03-02T07:15:10.599Z,29.90
2018-03-02T07:17:03.874Z,31.70
2018-03-02T07:18:03.758Z,27.80
2018-03-02T07:19:57.131Z,23.20
2018-03-02T07:20:56.912Z,23.10
2018-03-02T07:22:50.143Z,25.00
2018-03-02T07:23:50.062Z,24.70
2018-03-02T07:25:43.316Z,27.00
2018-03-02T07:26:43.213Z,25.20
2018-03-02T07:28:36.451Z,32.40
2018-03-02T07:29:36.372Z,30.90
2018-03-02T07:31:29.628Z,30.20
2018-03-02T07:32:29.525Z,33.40
2018-03-02T07:34:22.877Z,30.40
2018-03-02T07:35:22.680Z,28.00
2018-03-02T07:37:15.936Z,27.80
2018-03-02T07:38:15.835Z,29.20
2018-03-02T07:40:09.086Z,30.40
2018-03-02T07:41:08.983Z,31.70
2018-03-02T07:43:02.209Z,26.60
2018-03-02T07:44:02.127Z,27.90
2018-03-02T07:45:55.432Z,27.30
2018-03-02T07:46:55.332Z,28.00
2018-03-02T07:48:48.559Z,26.80
2018-03-02T07:49:48.525Z,28.30
2018-03-02T07:51:41.721Z,27.20
2018-03-02T07:52:41.622Z,26.90
2018-03-02T07:54:34.856Z,28.60
2018-03-02T07:55:34.768Z,32.00
2018-03-02T07:57:28.081Z,26.50
2018-03-02T07:58:27.932Z,31.00
2018-03-02T08:00:21.182Z,34.20
2018-03-02T08:01:21.080Z,32.70
2018-03-02T08:03:14.411Z,21.80
2018-03-02T08:04:14.344Z,24.50
2018-03-02T08:06:07.705Z,29.20
2018-03-02T08:07:07.483Z,32.60
2018-03-02T08:09:00.711Z,29.80
2018-03-02T08:10:00.625Z,30.00
2018-03-02T08:11:53.871Z,25.90
2018-03-02T08:12:53.768Z,24.40
2018-03-02T08:14:47.005Z,24.80
2018-03-02T08:15:46.929Z,25.40
2018-03-02T08:17:40.300Z,30.50
2018-03-02T08:18:40.070Z,27.80
2018-03-02T08:20:33.328Z,27.30
2018-03-02T08:21:33.230Z,25.60
2018-03-02T08:23:26.471Z,27.90
2018-03-02T08:24:26.376Z,28.10
2018-03-02T08:26:19.637Z,26.20
2018-03-02T08:27:19.538Z,27.40
2018-03-02T08:29:12.764Z,31.50
2018-03-02T08:30:12.681Z,28.80
2018-03-02T08:32:05.927Z,28.70
2018-03-02T08:33:05.827Z,29.10
2018-03-02T08:34:59.063Z,31.50
2018-03-02T08:35:58.987Z,26.80
2018-03-02T08:37:52.223Z,31.20
2018-03-02T08:38:52.128Z,33.40
2018-03-02T08:40:45.381Z,27.60
2018-03-02T08:41:45.281Z,31.60
2018-03-02T08:43:38.521Z,30.10
2018-03-02T08:44:38.448Z,27.20
2018-03-02T08:46:31.687Z,29.10
2018-03-02T08:47:31.583Z,32.00
2018-03-02T08:49:24.817Z,30.40
2018-03-02T08:50:24.737Z,31.00
2018-03-02T08:52:17.991Z,30.90
2018-03-02T08:53:17.888Z,30.00
2018-03-02T08:55:11.118Z,26.90
2018-03-02T08:56:11.047Z,31.80
2018-03-02T08:58:04.593Z,35.30
2018-03-02T08:59:04.503Z,30.60
2018-03-02T09:00:57.752Z,31.20
2018-03-02T09:01:57.658Z,28.60
2018-03-02T09:03:50.886Z,29.80
2018-03-02T09:04:50.809Z,27.70
2018-03-02T09:06:44.183Z,28.20
2018-03-02T09:07:43.958Z,22.00
2018-03-02T09:09:37.202Z,29.10
2018-03-02T09:10:37.125Z,30.10
2018-03-02T09:12:30.613Z,34.60
2018-03-02T09:13:30.510Z,30.90
2018-03-02T09:15:23.742Z,29.80
2018-03-02T09:16:23.662Z,33.10
2018-03-02T09:18:16.917Z,35.00
2018-03-02T09:19:16.821Z,28.90
2018-03-02T09:21:11.078Z,27.20
2018-03-02T09:22:10.981Z,28.30
2018-03-02T09:24:04.228Z,31.40
2018-03-02T09:25:04.157Z,36.00
2018-03-02T09:26:57.403Z,22.70
2018-03-02T09:27:57.306Z,23.30
2018-03-02T09:29:50.591Z,27.60
2018-03-02T09:30:50.516Z,35.30
2018-03-02T09:32:43.891Z,27.00
2018-03-02T09:33:43.669Z,25.20
2018-03-02T09:35:36.909Z,31.40
2018-03-02T09:36:36.840Z,33.70
2018-03-02T09:38:30.207Z,34.00
2018-03-02T09:39:29.984Z,29.30
2018-03-02T09:41:23.238Z,32.30
2018-03-02T09:42:23.138Z,29.00
2018-03-02T09:44:16.586Z,31.60
2018-03-02T09:45:16.508Z,32.00
2018-03-02T09:47:09.760Z,36.20
2018-03-02T09:48:09.663Z,40.40
2018-03-02T09:50:02.899Z,35.00
2018-03-02T09:51:02.820Z,30.80
2018-03-02T09:52:56.077Z,32.50
2018-03-02T09:53:55.978Z,31.30
2018-03-02T09:55:49.211Z,36.20
2018-03-02T09:56:49.133Z,37.40
2018-03-02T09:58:42.607Z,35.60
2018-03-02T09:59:42.537Z,36.30
2018-03-02T10:01:35.767Z,35.40
2018-03-02T10:02:35.671Z,34.10
2018-03-02T10:04:28.910Z,34.90
2018-03-02T10:05:28.832Z,34.90
2018-03-02T10:07:22.089Z,32.30
2018-03-02T10:08:21.992Z,31.30
2018-03-02T10:10:15.268Z,30.50
2018-03-02T10:11:15.193Z,29.50
2018-03-02T10:13:08.607Z,37.10
2018-03-02T10:14:08.516Z,33.40
2018-03-02T10:16:01.747Z,35.00
2018-03-02T10:17:01.671Z,34.50
2018-03-02T10:18:54.939Z,33.30
2018-03-02T10:19:54.847Z,35.20
2018-03-02T10:21:48.101Z,37.50
2018-03-02T10:22:48.001Z,34.80
2018-03-02T10:24:41.258Z,36.40
2018-03-02T10:25:41.178Z,35.90
2018-03-02T10:27:34.602Z,36.00
2018-03-02T10:28:34.510Z,35.60
2018-03-02T10:30:27.748Z,35.90
2018-03-02T10:31:27.672Z,35.40
2018-03-02T10:33:20.930Z,35.60
2018-03-02T10:34:20.834Z,34.90
2018-03-02T10:36:14.072Z,32.30
2018-03-02T10:37:13.998Z,33.50
2018-03-02T10:39:07.257Z,38.60
2018-03-02T10:40:07.157Z,38.70
2018-03-02T10:42:00.610Z,35.50
2018-03-02T10:43:00.517Z,36.70
2018-03-02T10:44:53.755Z,34.30
2018-03-02T10:45:53.679Z,39.40
2018-03-02T10:47:46.949Z,28.40
2018-03-02T10:48:46.855Z,29.60
2018-03-02T10:50:40.101Z,32.90
2018-03-02T10:51:40.023Z,36.40
2018-03-02T10:53:33.278Z,34.40
2018-03-02T10:54:33.186Z,32.70
2018-03-02T10:56:26.589Z,36.00
2018-03-02T10:57:26.513Z,32.20
2018-03-02T10:59:19.779Z,32.10
2018-03-02T11:00:19.684Z,34.00
2018-03-02T11:02:12.942Z,37.40
2018-03-02T11:03:12.847Z,36.10
2018-03-02T11:05:06.088Z,30.10
2018-03-02T11:06:06.011Z,29.50
2018-03-02T11:07:59.305Z,38.00
2018-03-02T11:08:59.170Z,37.90
2018-03-02T11:10:52.588Z,31.20
2018-03-02T11:11:52.510Z,34.60
2018-03-02T11:13:45.818Z,29.00
2018-03-02T11:14:45.699Z,29.00
2018-03-02T11:16:38.935Z,30.70
2018-03-02T11:17:38.859Z,36.10
2018-03-02T11:19:32.114Z,35.50
2018-03-02T11:20:32.021Z,34.90
2018-03-02T11:22:25.397Z,35.60
2018-03-02T11:23:25.184Z,30.60
2018-03-02T11:25:18.543Z,30.50
2018-03-02T11:26:18.349Z,32.30
2018-03-02T11:28:11.632Z,31.40
2018-03-02T11:29:11.534Z,32.20
2018-03-02T11:31:04.763Z,31.10
2018-03-02T11:32:04.693Z,30.70
2018-03-02T11:33:57.944Z,23.70
2018-03-02T11:34:57.848Z,34.70
2018-03-02T11:36:51.081Z,34.00
2018-03-02T11:37:51.001Z,32.30
2018-03-02T11:39:44.260Z,34.80
2018-03-02T11:40:44.164Z,39.80
2018-03-02T11:42:37.422Z,29.80
2018-03-02T11:43:37.328Z,25.00
2018-03-02T11:45:30.561Z,22.90
2018-03-02T11:46:30.481Z,27.70
2018-03-02T11:48:23.862Z,27.30
2018-03-02T11:49:23.642Z,32.70
2018-03-02T11:51:16.999Z,28.70
2018-03-02T11:52:16.796Z,32.20
2018-03-02T11:54:10.051Z,27.10
2018-03-02T11:55:09.950Z,31.70
2018-03-02T11:57:03.183Z,35.00
2018-03-02T11:58:03.099Z,38.30
2018-03-02T11:59:56.359Z,35.10
2018-03-02T12:00:56.268Z,34.80
2018-03-02T12:02:49.516Z,31.60
2018-03-02T12:03:49.422Z,31.40
2018-03-02T12:05:42.710Z,26.50
2018-03-02T12:06:42.629Z,34.80
2018-03-02T12:08:36.006Z,30.00
2018-03-02T12:09:35.788Z,31.30
2018-03-02T12:11:29.016Z,34.00
2018-03-02T12:12:28.939Z,30.20
2018-03-02T12:14:22.195Z,34.80
2018-03-02T12:15:22.094Z,32.10
2018-03-02T12:17:15.452Z,35.50
2018-03-02T12:18:15.254Z,31.50
2018-03-02T12:20:08.513Z,29.50
2018-03-02T12:21:08.412Z,29.20
2018-03-02T12:23:01.791Z,25.60
2018-03-02T12:24:01.569Z,27.80
2018-03-02T12:25:54.809Z,34.60
2018-03-02T12:26:54.741Z,39.50
2018-03-02T12:28:48.027Z,34.10
2018-03-02T12:29:47.932Z,31.80
2018-03-02T12:31:41.178Z,35.70
2018-03-02T12:32:41.119Z,37.20
2018-03-02T12:34:34.448Z,27.30
2018-03-02T12:35:34.347Z,29.50
2018-03-02T12:37:27.577Z,33.00
2018-03-02T12:38:27.500Z,36.30
2018-03-02T12:40:20.754Z,31.80
2018-03-02T12:41:20.656Z,30.30
2018-03-02T12:43:14.094Z,36.00
2018-03-02T12:44:13.814Z,34.40
2018-03-02T12:46:07.047Z,28.60
2018-03-02T12:47:06.970Z,33.50
2018-03-02T12:49:00.228Z,31.40
2018-03-02T12:50:00.133Z,33.80
2018-03-02T12:51:53.376Z,34.90
2018-03-02T12:52:53.291Z,30.70
2018-03-02T12:54:46.556Z,35.10
2018-03-02T12:55:46.461Z,38.10
2018-03-02T12:57:39.709Z,36.20
2018-03-02T12:58:39.628Z,37.20
2018-03-02T13:00:32.945Z,37.10
2018-03-02T13:01:32.794Z,36.10
2018-03-02T13:03:26.058Z,33.60
2018-03-02T13:04:25.962Z,31.10
2018-03-02T13:06:19.321Z,37.80
2018-03-02T13:07:19.131Z,38.30
2018-03-02T13:09:12.509Z,39.60
2018-03-02T13:10:12.335Z,44.10
2018-03-02T13:12:05.692Z,37.40
2018-03-02T13:13:05.503Z,39.70
2018-03-02T13:14:58.777Z,38.40
2018-03-02T13:15:58.673Z,36.90
2018-03-02T13:17:51.913Z,43.00
2018-03-02T13:18:51.873Z,38.20
2018-03-02T13:20:45.091Z,36.00
2018-03-02T13:21:44.995Z,32.70
2018-03-02T13:23:38.259Z,32.20
2018-03-02T13:24:38.165Z,32.70
2018-03-02T13:26:31.536Z,36.60
2018-03-02T13:27:31.330Z,36.10
2018-03-02T13:29:24.598Z,30.30
2018-03-02T13:30:24.497Z,32.30
2018-03-02T13:32:17.743Z,32.60
2018-03-02T13:33:17.666Z,35.90
2018-03-02T13:35:10.932Z,35.70
2018-03-02T13:36:10.862Z,34.70
2018-03-02T13:38:04.078Z,37.10
2018-03-02T13:39:04.000Z,36.10
2018-03-02T13:40:57.378Z,36.90
2018-03-02T13:41:57.173Z,36.10
2018-03-02T13:43:50.550Z,36.40
2018-03-02T13:44:50.369Z,35.40
2018-03-02T13:46:43.719Z,40.10
2018-03-02T13:47:43.528Z,35.40
2018-03-02T13:49:36.793Z,39.00
2018-03-02T13:50:36.701Z,33.60
2018-03-02T13:52:30.059Z,36.50
2018-03-02T13:53:29.868Z,41.90
2018-03-02T13:55:23.133Z,38.60
2018-03-02T13:56:23.035Z,36.60
2018-03-02T13:58:16.413Z,40.70
2018-03-02T13:59:16.337Z,39.30
2018-03-02T14:01:09.604Z,37.70
2018-03-02T14:02:09.508Z,36.60
2018-03-02T14:04:02.888Z,33.80
2018-03-02T14:05:02.677Z,28.00
2018-03-02T14:06:55.922Z,32.20
2018-03-02T14:07:55.846Z,28.40
2018-03-02T14:09:49.223Z,27.10
2018-03-02T14:10:49.011Z,29.00
2018-03-02T14:12:42.257Z,36.90
2018-03-02T14:13:42.179Z,33.00
2018-03-02T14:15:35.441Z,35.30
2018-03-02T14:16:35.344Z,36.90
2018-03-02T14:18:28.702Z,36.70
2018-03-02T14:19:28.514Z,32.80
2018-03-02T14:21:21.779Z,35.90
2018-03-02T14:22:21.683Z,32.50
2018-03-02T14:24:14.951Z,35.40
2018-03-02T14:25:14.851Z,31.70
2018-03-02T14:27:08.097Z,30.50
2018-03-02T14:28:08.025Z,31.40
2018-03-02T14:30:01.290Z,35.10
2018-03-02T14:31:01.189Z,38.80
2018-03-02T14:32:54.547Z,33.30
2018-03-02T14:33:54.356Z,37.60
2018-03-02T14:35:47.631Z,38.50
2018-03-02T14:36:47.524Z,37.70
2018-03-02T14:38:40.767Z,40.30
2018-03-02T14:39:40.691Z,37.10
2018-03-02T14:41:33.957Z,43.50
2018-03-02T14:42:33.868Z,43.10
2018-03-02T14:44:27.236Z,42.30
2018-03-02T14:45:27.028Z,40.30
2018-03-02T14:47:20.474Z,48.20
2018-03-02T14:48:20.345Z,35.80
2018-03-02T14:50:13.608Z,42.20
2018-03-02T14:51:13.510Z,42.30
2018-03-02T14:53:06.869Z,39.20
2018-03-02T14:54:06.685Z,37.10
2018-03-02T14:56:00.063Z,40.30
2018-03-02T14:56:59.866Z,45.60
2018-03-02T14:58:53.105Z,41.50
2018-03-02T14:59:53.028Z,40.90
2018-03-02T15:01:46.283Z,35.80
2018-03-02T15:02:46.190Z,40.90
2018-03-02T15:04:39.445Z,38.10
2018-03-02T15:05:39.348Z,37.90
2018-03-02T15:07:32.590Z,41.30
2018-03-02T15:08:32.510Z,45.70
2018-03-02T15:10:25.762Z,40.40
2018-03-02T15:11:25.666Z,41.90
2018-03-02T15:13:18.904Z,38.40
2018-03-02T15:14:18.828Z,42.80
2018-03-02T15:16:12.101Z,39.30
2018-03-02T15:17:12.006Z,40.70
2018-03-02T15:19:05.239Z,41.30
2018-03-02T15:20:05.163Z,41.30
2018-03-02T15:21:58.437Z,37.20
2018-03-02T15:22:58.343Z,42.80
2018-03-02T15:24:51.604Z,40.20
2018-03-02T15:25:51.511Z,38.40
2018-03-02T15:27:44.749Z,40.60
2018-03-02T15:28:44.674Z,39.70
2018-03-02T15:30:37.929Z,43.50
2018-03-02T15:31:37.832Z,39.20
2018-03-02T15:33:31.068Z,37.50
2018-03-02T15:34:30.983Z,39.10
2018-03-02T15:36:24.246Z,35.80
2018-03-02T15:37:24.150Z,38.40
2018-03-02T15:39:17.400Z,39.30
2018-03-02T15:40:17.320Z,41.70
2018-03-02T15:42:10.578Z,39.70
2018-03-02T15:43:10.484Z,36.30
2018-03-02T15:45:03.748Z,37.60
2018-03-02T15:46:03.652Z,36.00
2018-03-02T15:47:56.886Z,37.70
2018-03-02T15:48:56.809Z,42.20
2018-03-02T15:50:50.064Z,36.00
2018-03-02T15:51:49.966Z,38.40
2018-03-02T15:53:43.202Z,37.90
2018-03-02T15:54:43.125Z,38.50
2018-03-02T15:56:36.437Z,39.20
2018-03-02T15:57:36.337Z,44.60
2018-03-02T15:59:29.574Z,39.80
2018-03-02T16:00:29.496Z,43.60
2018-03-02T16:02:22.872Z,37.70
2018-03-02T16:03:22.651Z,38.70
2018-03-02T16:05:15.945Z,39.80
2018-03-02T16:06:15.847Z,35.90
2018-03-02T16:08:09.085Z,39.80
2018-03-02T16:09:09.006Z,38.40
2018-03-02T16:11:02.263Z,35.50
2018-03-02T16:12:02.165Z,39.80
2018-03-02T16:13:56.023Z,37.40
2018-03-02T16:14:55.326Z,40.60
2018-03-02T16:16:48.582Z,42.50
2018-03-02T16:17:48.485Z,36.20
2018-03-02T16:19:41.770Z,42.30
2018-03-02T16:20:41.655Z,37.20
2018-03-02T16:22:34.907Z,38.70
2018-03-02T16:23:34.813Z,39.10
2018-03-02T16:25:28.067Z,37.10
2018-03-02T16:26:27.970Z,38.40
2018-03-02T16:28:21.230Z,38.00
2018-03-02T16:29:21.156Z,38.50
2018-03-02T16:31:15.409Z,42.40
2018-03-02T16:32:15.308Z,41.70
2018-03-02T16:34:08.563Z,39.70
2018-03-02T16:35:08.484Z,38.70
2018-03-02T16:37:01.751Z,37.20
2018-03-02T16:38:01.652Z,39.50
2018-03-02T16:39:54.887Z,37.80
2018-03-02T16:40:54.806Z,35.20
2018-03-02T16:42:48.072Z,39.60
2018-03-02T16:43:47.977Z,37.70
2018-03-02T16:45:41.231Z,42.00
2018-03-02T16:46:41.131Z,40.30
2018-03-02T16:48:34.627Z,37.60
2018-03-02T16:49:34.583Z,39.70
2018-03-02T16:51:28.037Z,43.00
2018-03-02T16:52:27.714Z,42.10
2018-03-02T16:54:20.951Z,35.60
2018-03-02T16:55:20.871Z,41.80
2018-03-02T16:57:14.128Z,38.70
2018-03-02T16:58:14.127Z,38.60
2018-03-02T17:00:07.265Z,40.60
2018-03-02T17:01:07.185Z,41.50
2018-03-02T17:03:00.569Z,38.30
2018-03-02T17:04:00.345Z,36.30
2018-03-02T17:05:53.596Z,38.60
2018-03-02T17:06:53.497Z,41.80
2018-03-02T17:08:46.731Z,39.00
2018-03-02T17:09:46.652Z,38.10
2018-03-02T17:11:39.905Z,40.30
2018-03-02T17:12:39.809Z,38.70
2018-03-02T17:14:33.047Z,40.20
2018-03-02T17:15:33.000Z,36.80
2018-03-02T17:17:26.226Z,38.10
2018-03-02T17:18:26.127Z,39.00
2018-03-02T17:20:19.363Z,43.70
2018-03-02T17:21:19.288Z,39.30
2018-03-02T17:23:12.551Z,39.50
2018-03-02T17:24:12.460Z,45.30
2018-03-02T17:26:05.828Z,44.10
2018-03-02T17:27:05.622Z,42.20
2018-03-02T17:28:58.864Z,42.70
2018-03-02T17:29:58.787Z,44.90
2018-03-02T17:31:51.555Z,44.70
2018-03-02T17:32:51.453Z,45.90
2018-03-02T17:34:44.696Z,41.20
2018-03-02T17:35:44.628Z,43.00
2018-03-02T17:37:37.883Z,43.80
2018-03-02T17:38:37.786Z,45.80
2018-03-02T17:40:31.027Z,45.60
2018-03-02T17:41:30.937Z,45.10
2018-03-02T17:43:24.206Z,42.60
2018-03-02T17:44:24.110Z,38.80
2018-03-02T17:46:17.374Z,41.20
2018-03-02T17:47:17.277Z,44.50
2018-03-02T17:49:10.528Z,45.70
2018-03-02T17:50:10.436Z,42.40
2018-03-02T17:52:03.705Z,45.90
2018-03-02T17:53:03.609Z,41.50
2018-03-02T17:54:56.877Z,40.50
2018-03-02T17:55:56.793Z,38.70
2018-03-02T17:57:50.035Z,42.30
2018-03-02T17:58:49.941Z,38.90
2018-03-02T18:00:43.175Z,39.70
2018-03-02T18:01:43.095Z,42.80
2018-03-02T18:03:36.360Z,42.50
2018-03-02T18:04:36.264Z,37.40
2018-03-02T18:06:29.523Z,37.40
2018-03-02T18:07:29.449Z,43.90
2018-03-02T18:09:22.673Z,42.20
2018-03-02T18:10:22.597Z,42.10
2018-03-02T18:12:15.971Z,45.60
2018-03-02T18:13:15.760Z,44.10
2018-03-02T18:15:09.002Z,39.90
2018-03-02T18:16:08.924Z,44.40
2018-03-02T18:18:02.187Z,39.70
2018-03-02T18:19:02.090Z,43.70
2018-03-02T18:20:54.838Z,42.80
2018-03-02T18:21:54.759Z,39.60
2018-03-02T18:23:48.025Z,42.10
2018-03-02T18:24:47.925Z,41.00
2018-03-02T18:26:41.187Z,41.70
2018-03-02T18:27:41.091Z,41.10
2018-03-02T18:29:34.333Z,39.90
2018-03-02T18:30:34.254Z,45.00
2018-03-02T18:32:27.515Z,43.10
2018-03-02T18:33:27.422Z,41.40
2018-03-02T18:35:20.662Z,44.00